Time;durP1;ratioP1;P1;durP2;ratioP2;P2;SDS_P1;SDS_P2;PMS_P1;PMS_P2;Temp;Humidity;BMP_temperature;BMP_pressure;BME280_temperature;BME280_humidity;BME280_pressure;Samples;Min_cycle;Max_cycle;Signal;HPM_P1;HPM_P2
2021/07/18 00:00:26;;;;;;;27.67;18.85;;;;;;;15.80;100.00;93548.13;2115697;27;20070;-84
2021/07/18 00:01:27;;;;;;;23.55;18.58;;;;;;;15.74;100.00;93545.25;2104396;28;20047;-85
2021/07/18 00:02:27;;;;;;;27.02;19.05;;;;;;;15.72;100.00;93550.31;2100861;28;20031;-83
2021/07/18 00:03:28;;;;;;;25.58;19.38;;;;;;;15.69;100.00;93547.75;2104207;28;20118;-85
2021/07/18 00:04:30;;;;;;;21.45;17.42;;;;;;;15.68;100.00;93548.94;2114824;28;20068;-84
2021/07/18 00:05:31;;;;;;;26.33;17.50;;;;;;;15.65;100.00;93549.81;2103464;28;20024;-84
2021/07/18 00:06:32;;;;;;;25.90;18.90;;;;;;;15.63;100.00;93555.63;2112962;28;20459;-84
2021/07/18 00:07:33;;;;;;;24.45;18.10;;;;;;;15.60;100.00;93551.84;2101662;28;20023;-84
2021/07/18 00:08:34;;;;;;;23.73;18.15;;;;;;;15.59;100.00;93544.97;2097990;28;20025;-84
2021/07/18 00:09:34;;;;;;;22.73;18.33;;;;;;;15.58;100.00;93539.97;2097334;28;20504;-85
2021/07/18 00:10:35;;;;;;;21.27;17.20;;;;;;;15.57;100.00;93543.88;2096968;28;20036;-85
2021/07/18 00:11:37;;;;;;;26.13;17.63;;;;;;;15.62;100.00;93544.06;2090947;28;20076;-83
2021/07/18 00:12:39;;;;;;;26.52;18.10;;;;;;;15.59;100.00;93547.66;2093277;28;20025;-85
2021/07/18 00:13:40;;;;;;;23.83;18.35;;;;;;;15.58;100.00;93539.97;2089802;28;20025;-83
2021/07/18 00:14:41;;;;;;;23.15;17.20;;;;;;;15.58;100.00;93540.75;2100428;28;20051;-84
2021/07/18 00:15:42;;;;;;;20.80;16.75;;;;;;;15.57;100.00;93544.63;2112044;28;20030;-83
2021/07/18 00:16:43;;;;;;;21.10;17.20;;;;;;;15.59;100.00;93544.22;2089782;28;20028;-85
2021/07/18 00:17:44;;;;;;;22.27;17.13;;;;;;;15.52;100.00;93541.75;2108976;27;20080;-85
2021/07/18 00:18:45;;;;;;;20.20;16.67;;;;;;;15.56;100.00;93540.44;2108390;28;20085;-84
2021/07/18 00:19:46;;;;;;;22.75;17.95;;;;;;;15.49;100.00;93551.44;2090397;28;20504;-84
2021/07/18 00:20:49;;;;;;;21.17;16.40;;;;;;;15.48;100.00;93552.63;2093116;28;20059;-83
2021/07/18 00:21:50;;;;;;;20.88;15.68;;;;;;;15.43;100.00;93550.50;2100324;28;20021;-84
2021/07/18 00:22:51;;;;;;;22.27;17.08;;;;;;;15.44;100.00;93554.69;2099112;28;20035;-84
2021/07/18 00:23:53;;;;;;;26.13;16.20;;;;;;;15.47;100.00;93553.06;2114817;27;20019;-84
2021/07/18 00:24:54;;;;;;;25.75;16.58;;;;;;;15.42;100.00;93548.25;2102924;28;20488;-83
2021/07/18 00:25:55;;;;;;;30.27;16.33;;;;;;;15.41;100.00;93555.56;2091902;28;20033;-83
2021/07/18 00:26:56;;;;;;;28.25;16.10;;;;;;;15.39;100.00;93544.47;2097787;28;20094;-83
2021/07/18 00:27:57;;;;;;;23.33;15.98;;;;;;;15.33;100.00;93535.44;2108586;28;20091;-85
2021/07/18 00:28:58;;;;;;;23.13;15.73;;;;;;;15.26;100.00;93541.06;2109941;28;20031;-85
2021/07/18 00:29:59;;;;;;;19.05;16.00;;;;;;;15.28;100.00;93541.41;2092946;28;20134;-85
2021/07/18 00:31:00;;;;;;;20.52;15.85;;;;;;;15.24;100.00;93544.19;2097833;28;20153;-83
2021/07/18 00:32:01;;;;;;;20.08;15.43;;;;;;;15.22;100.00;93548.50;2107439;28;20039;-84
2021/07/18 00:33:04;;;;;;;22.38;15.60;;;;;;;15.25;100.00;93536.88;2100517;28;20031;-83
2021/07/18 00:34:05;;;;;;;21.65;14.70;;;;;;;15.22;100.00;93549.25;2091771;28;20059;-85
2021/07/18 00:35:06;;;;;;;20.02;15.73;;;;;;;15.19;100.00;93549.38;2101538;28;20028;-84
2021/07/18 00:36:08;;;;;;;22.50;15.07;;;;;;;15.22;100.00;93545.81;2110594;27;20045;-83
2021/07/18 00:37:09;;;;;;;19.40;14.73;;;;;;;15.24;100.00;93540.75;2108526;28;20042;-84
2021/07/18 00:38:09;;;;;;;20.25;14.82;;;;;;;15.24;100.00;93532.69;2089257;28;20076;-84
2021/07/18 00:39:10;;;;;;;16.83;14.65;;;;;;;15.23;100.00;93539.22;2091563;28;20056;-84
2021/07/18 00:40:11;;;;;;;21.60;15.23;;;;;;;15.23;100.00;93541.91;2105808;28;20031;-84
2021/07/18 00:41:12;;;;;;;26.83;15.27;;;;;;;15.19;100.00;93538.59;2103215;28;20130;-83
2021/07/18 00:42:20;;;;;;;21.77;14.32;;;;;;;15.16;100.00;93540.22;2104810;28;20039;-84
2021/07/18 00:43:21;;;;;;;19.40;13.60;;;;;;;15.11;100.00;93541.53;2105104;28;20026;-84
2021/07/18 00:44:22;;;;;;;22.60;15.02;;;;;;;15.13;100.00;93533.00;2089371;28;20025;-83
2021/07/18 00:45:22;;;;;;;22.50;14.63;;;;;;;15.15;100.00;93540.66;2095963;28;20619;-83
2021/07/18 00:46:23;;;;;;;24.10;14.88;;;;;;;15.07;100.00;93540.88;2113306;27;20081;-85
2021/07/18 00:47:25;;;;;;;20.25;13.45;;;;;;;15.06;100.00;93536.69;2106018;28;20403;-83
2021/07/18 00:48:29;;;;;;;22.35;15.73;;;;;;;15.01;100.00;93534.56;2107582;28;20046;-85
2021/07/18 00:49:30;;;;;;;0.43;0.43;;;;;;;15.00;100.00;93530.34;2097588;28;20032;-83
2021/07/18 00:50:32;;;;;;;18.00;1.50;;;;;;;14.99;100.00;93530.78;2089750;28;20025;-83
2021/07/18 00:51:32;;;;;;;0.22;0.22;;;;;;;14.92;100.00;93536.38;2092020;28;20059;-83
2021/07/18 00:52:33;;;;;;;0.40;0.40;;;;;;;14.94;100.00;93539.41;2094993;28;20961;-83
2021/07/18 00:53:34;;;;;;;1.15;1.10;;;;;;;14.93;100.00;93535.22;2101347;28;20028;-83
2021/07/18 00:54:35;;;;;;;6.68;1.33;;;;;;;14.86;100.00;93530.78;2110190;28;20495;-85
2021/07/18 00:55:40;;;;;;;1.25;0.63;;;;;;;14.84;100.00;93533.19;2109039;28;20038;-83
2021/07/18 00:56:41;;;;;;;0.65;0.65;;;;;;;14.80;100.00;93535.97;2115268;27;20483;-84
2021/07/18 00:57:46;;;;;;;0.52;0.52;;;;;;;14.80;100.00;93527.91;2114159;28;20472;-84
2021/07/18 00:58:53;;;;;;;0.45;0.45;;;;;;;14.56;100.00;93532.84;2102693;28;20029;-86
2021/07/18 00:59:54;;;;;;;0.98;0.93;;;;;;;14.65;100.00;93532.19;2120282;27;20127;-84
2021/07/18 01:00:56;;;;;;;0.40;0.40;;;;;;;14.70;100.00;93528.22;2106412;28;20473;-84
2021/07/18 01:01:57;;;;;;;0.40;0.40;;;;;;;14.74;100.00;93528.84;2100604;28;20052;-84
2021/07/18 01:02:58;;;;;;;0.38;0.38;;;;;;;14.79;100.00;93531.00;2112894;28;20494;-83
2021/07/18 01:03:59;;;;;;;0.80;0.80;;;;;;;14.80;100.00;93538.66;2101890;28;20028;-84
2021/07/18 01:05:01;;;;;;;0.40;0.40;;;;;;;14.75;100.00;93535.75;2116323;27;20023;-83
2021/07/18 01:06:02;;;;;;;0.43;0.43;;;;;;;14.76;100.00;93534.59;2099888;28;20044;-84
2021/07/18 01:07:05;;;;;;;0.28;0.28;;;;;;;14.75;100.00;93528.44;2100099;28;20112;-84
2021/07/18 01:08:06;;;;;;;0.30;0.30;;;;;;;14.74;100.00;93542.31;2111076;27;20086;-85
2021/07/18 01:09:07;;;;;;;5.47;1.27;;;;;;;14.73;100.00;93538.13;2109325;28;20081;-85
2021/07/18 01:10:09;;;;;;;0.22;0.22;;;;;;;14.73;100.00;93535.44;2100005;28;20020;-85
2021/07/18 01:11:10;;;;;;;0.60;0.60;;;;;;;14.67;100.00;93529.84;2099545;28;20764;-85
2021/07/18 01:12:11;;;;;;;4.03;0.85;;;;;;;14.75;100.00;93535.75;2101059;28;20020;-84
2021/07/18 01:13:12;;;;;;;0.40;0.40;;;;;;;14.77;100.00;93528.75;2121808;27;20111;-84
2021/07/18 01:14:13;;;;;;;0.47;0.47;;;;;;;14.79;100.00;93533.69;2113117;28;20088;-84
2021/07/18 01:15:14;;;;;;;0.70;0.70;;;;;;;14.79;100.00;93529.09;2089384;28;20025;-83
2021/07/18 01:16:15;;;;;;;0.63;0.63;;;;;;;14.78;100.00;93522.19;2097538;28;20066;-85
2021/07/18 01:17:16;;;;;;;0.52;0.52;;;;;;;14.80;100.00;93529.84;2088349;28;20037;-84
2021/07/18 01:18:17;;;;;;;0.93;0.93;;;;;;;14.79;100.00;93518.31;2109220;28;20024;-85
2021/07/18 01:19:20;;;;;;;0.82;0.68;;;;;;;14.78;100.00;93519.50;2113317;28;20023;-84
2021/07/18 01:20:21;;;;;;;0.50;0.50;;;;;;;14.75;100.00;93524.97;2095717;28;20016;-83
2021/07/18 01:21:24;;;;;;;0.43;0.43;;;;;;;14.74;100.00;93518.84;2111107;28;20119;-84
2021/07/18 01:22:25;;;;;;;0.25;0.25;;;;;;;14.71;100.00;93517.03;2105654;28;20385;-84
2021/07/18 01:23:26;;;;;;;0.50;0.50;;;;;;;14.70;100.00;93517.44;2103779;28;20042;-84
2021/07/18 01:24:30;;;;;;;3.83;2.03;;;;;;;14.68;100.00;93517.91;2112166;27;20023;-84
2021/07/18 01:25:33;;;;;;;0.70;0.70;;;;;;;14.65;100.00;93526.81;2117154;27;20407;-85
2021/07/18 01:26:34;;;;;;;1.20;1.20;;;;;;;14.71;100.00;93518.97;2114623;28;20118;-84
2021/07/18 01:27:36;;;;;;;0.82;0.82;;;;;;;14.72;100.00;93517.78;2105091;28;20078;-83
2021/07/18 01:28:37;;;;;;;1.52;1.25;;;;;;;14.72;100.00;93512.41;2107422;28;20028;-85
2021/07/18 01:29:38;;;;;;;0.38;0.38;;;;;;;14.73;100.00;93517.34;2106414;28;20020;-84
2021/07/18 01:30:40;;;;;;;0.50;0.50;;;;;;;14.70;100.00;93512.06;2091322;28;20039;-85
2021/07/18 01:31:41;;;;;;;1.25;1.25;;;;;;;14.70;100.00;93515.50;2093185;28;20425;-84
2021/07/18 01:32:42;;;;;;;0.82;0.60;;;;;;;14.72;100.00;93515.84;2095552;28;20139;-84
2021/07/18 01:33:43;;;;;;;0.35;0.35;;;;;;;14.71;100.00;93510.91;2098746;28;20393;-84
2021/07/18 01:34:44;;;;;;;0.55;0.55;;;;;;;14.71;100.00;93511.66;2099146;28;20025;-83
2021/07/18 01:35:46;;;;;;;0.55;0.55;;;;;;;14.73;100.00;93505.84;2105837;28;20031;-84
2021/07/18 01:36:47;;;;;;;0.88;0.88;;;;;;;14.66;100.00;93514.13;2094772;28;20036;-84
2021/07/18 01:37:48;;;;;;;0.73;0.60;;;;;;;14.63;100.00;93512.31;2091256;28;20098;-84
2021/07/18 01:38:49;;;;;;;2.28;0.63;;;;;;;14.63;100.00;93512.31;2087177;28;20151;-84
2021/07/18 01:39:50;;;;;;;1.17;0.55;;;;;;;14.66;100.00;93506.78;2099077;28;20027;-83
2021/07/18 01:40:51;;;;;;;1.23;1.10;;;;;;;14.61;100.00;93505.41;2114172;28;20452;-86
2021/07/18 01:41:55;;;;;;;5.72;2.38;;;;;;;14.68;100.00;93511.75;2105465;28;20073;-84
2021/07/18 01:42:56;;;;;;;0.35;0.35;;;;;;;14.61;100.00;93508.09;2104939;28;20024;-85
2021/07/18 01:43:57;;;;;;;0.55;0.55;;;;;;;14.59;100.00;93505.09;2096188;28;20111;-84
2021/07/18 01:44:58;;;;;;;2.42;0.52;;;;;;;14.61;100.00;93505.41;2102148;28;20028;-83
2021/07/18 01:46:00;;;;;;;0.65;0.57;;;;;;;14.55;100.00;93509.81;2090530;28;20032;-84
2021/07/18 01:47:01;;;;;;;2.17;1.45;;;;;;;14.51;100.00;93500.34;2094040;28;20028;-85
2021/07/18 01:48:02;;;;;;;0.35;0.25;;;;;;;14.46;100.00;93501.63;2094752;28;20020;-83
2021/07/18 01:49:05;;;;;;;0.80;0.75;;;;;;;14.39;100.00;93496.44;2097163;28;20818;-84
2021/07/18 01:50:07;;;;;;;0.43;0.43;;;;;;;14.40;100.00;93497.97;2090090;28;20024;-84
2021/07/18 01:51:08;;;;;;;1.63;1.13;;;;;;;14.39;100.00;93498.38;2104685;28;20110;-83
2021/07/18 01:52:09;;;;;;;0.17;0.17;;;;;;;14.40;100.00;93500.66;2092960;28;20029;-83
2021/07/18 01:53:10;;;;;;;1.25;0.70;;;;;;;14.37;100.00;93501.53;2096648;28;20116;-85
2021/07/18 01:54:11;;;;;;;0.45;0.45;;;;;;;14.35;100.00;93504.66;2097556;28;20047;-83
2021/07/18 01:55:15;;;;;;;0.20;0.20;;;;;;;14.33;100.00;93500.88;2113858;28;20845;-83
2021/07/18 01:56:16;;;;;;;0.20;0.20;;;;;;;14.30;100.00;93501.72;2114363;28;20085;-85
2021/07/18 01:57:18;;;;;;;5.90;0.88;;;;;;;14.26;100.00;93501.06;2105382;28;20531;-85
2021/07/18 01:58:25;;;;;;;0.93;0.50;;;;;;;14.23;100.00;93504.63;2107985;28;20022;-83
2021/07/18 01:59:26;;;;;;;2.13;0.95;;;;;;;14.19;100.00;93495.91;2111612;28;20583;-84
2021/07/18 02:00:27;;;;;;;0.40;0.40;;;;;;;14.22;100.00;93500.41;2114050;28;20023;-83
2021/07/18 02:01:31;;;;;;;0.40;0.40;;;;;;;14.15;100.00;93504.09;2112734;28;20376;-84
2021/07/18 02:02:32;;;;;;;0.10;0.10;;;;;;;14.06;100.00;93503.97;2102948;28;20027;-84
2021/07/18 02:03:33;;;;;;;0.25;0.25;;;;;;;14.11;100.00;93506.13;2115695;27;20404;-84
2021/07/18 02:06:22;;;;;;;;;;;;;;;14.00;100.00;93501.03;2144606;27;20118;-84
2021/07/18 02:07:29;;;;;;;0.10;0.10;;;;;;;13.98;100.00;93500.72;2121181;28;20054;-85
2021/07/18 02:08:30;;;;;;;0.20;0.20;;;;;;;13.97;100.00;93501.91;2100257;28;20035;-84
2021/07/18 02:09:34;;;;;;;0.20;0.20;;;;;;;13.95;100.00;93498.13;2106453;28;20047;-85
2021/07/18 02:10:35;;;;;;;0.38;0.38;;;;;;;13.97;100.00;93501.16;2119988;27;20099;-84
2021/07/18 02:11:36;;;;;;;0.17;0.17;;;;;;;13.98;100.00;93503.41;2112734;28;20024;-85
2021/07/18 02:12:37;;;;;;;0.40;0.40;;;;;;;13.96;100.00;93507.69;2116619;27;20432;-84
2021/07/18 02:13:38;;;;;;;1.08;1.05;;;;;;;13.92;100.00;93505.13;2119489;27;20024;-84
2021/07/18 02:14:40;;;;;;;0.65;0.65;;;;;;;13.90;100.00;93501.34;2120842;27;20392;-83
2021/07/18 02:15:41;;;;;;;0.57;0.32;;;;;;;13.88;100.00;93503.72;2115753;27;20058;-84
2021/07/18 02:16:42;;;;;;;0.38;0.30;;;;;;;13.86;100.00;93502.19;2118707;28;20082;-84
2021/07/18 02:17:44;;;;;;;0.25;0.25;;;;;;;13.84;100.00;93509.94;2106256;28;20404;-84
2021/07/18 02:18:45;;;;;;;0.40;0.40;;;;;;;13.75;100.00;93501.75;2111613;28;20058;-84
2021/07/18 02:19:46;;;;;;;0.30;0.30;;;;;;;13.79;100.00;93501.66;2120938;27;20383;-85
2021/07/18 02:20:47;;;;;;;0.47;0.47;;;;;;;13.76;100.00;93497.88;2112749;28;20020;-84
2021/07/18 02:21:48;;;;;;;0.10;0.10;;;;;;;13.78;100.00;93506.28;2118465;27;20754;-84
2021/07/18 02:22:52;;;;;;;0.43;0.43;;;;;;;13.76;100.00;93503.25;2122869;27;20031;-85
2021/07/18 02:23:53;;;;;;;0.30;0.25;;;;;;;13.70;100.00;93504.22;2106835;28;20117;-84
2021/07/18 02:24:54;;;;;;;0.17;0.17;;;;;;;13.68;100.00;93509.25;2112753;28;20070;-84
2021/07/18 02:25:55;;;;;;;0.30;0.30;;;;;;;13.68;100.00;93511.94;2110495;28;20032;-84
2021/07/18 02:26:56;;;;;;;1.00;1.00;;;;;;;13.73;100.00;93508.72;2104088;28;20505;-83
2021/07/18 02:27:57;;;;;;;4.57;1.70;;;;;;;13.75;100.00;93506.38;2107420;28;20019;-84
2021/07/18 02:28:59;;;;;;;6.78;1.80;;;;;;;13.66;100.00;93506.25;2112576;28;20106;-84
2021/07/18 02:30:00;;;;;;;0.25;0.25;;;;;;;13.67;100.00;93505.06;2098232;28;20025;-84
2021/07/18 02:31:05;;;;;;;0.60;0.60;;;;;;;13.63;100.00;93504.41;2104365;28;20016;-85
2021/07/18 02:32:06;;;;;;;0.50;0.50;;;;;;;13.58;100.00;93509.13;2104406;28;20024;-84
2021/07/18 02:33:07;;;;;;;1.95;0.88;;;;;;;13.63;100.00;93504.41;2096088;28;20433;-83
2021/07/18 02:34:08;;;;;;;0.88;0.88;;;;;;;13.60;100.00;93500.63;2108327;28;20027;-84
2021/07/18 02:35:11;;;;;;;0.45;0.45;;;;;;;13.63;100.00;93510.53;2108154;28;20484;-84
2021/07/18 02:36:12;;;;;;;0.52;0.47;;;;;;;13.65;100.00;93508.16;2098527;28;20029;-83
2021/07/18 02:37:13;;;;;;;0.20;0.20;;;;;;;13.59;100.00;93505.25;2112442;28;20020;-84
2021/07/18 02:38:14;;;;;;;0.75;0.52;;;;;;;13.61;100.00;93512.91;2109032;28;20032;-84
2021/07/18 02:39:15;;;;;;;0.10;0.10;;;;;;;13.64;100.00;93511.28;2114952;28;20020;-84
2021/07/18 02:40:18;;;;;;;0.88;0.65;;;;;;;13.62;100.00;93511.72;2115327;28;20024;-85
2021/07/18 02:41:19;;;;;;;0.43;0.43;;;;;;;13.63;100.00;93515.16;2115017;28;20071;-85
2021/07/18 02:42:20;;;;;;;0.22;0.20;;;;;;;13.52;100.00;93513.50;2109855;28;20027;-83
2021/07/18 02:43:21;;;;;;;0.43;0.30;;;;;;;13.54;100.00;93513.06;2100304;28;20024;-84
2021/07/18 02:44:22;;;;;;;0.40;0.40;;;;;;;13.47;100.00;93514.00;2115720;27;20062;-84
2021/07/18 02:45:24;;;;;;;0.30;0.30;;;;;;;13.38;100.00;93513.09;2116640;28;20031;-84
2021/07/18 02:46:25;;;;;;;0.32;0.30;;;;;;;13.34;100.00;93515.88;2113040;28;20104;-84
2021/07/18 02:47:26;;;;;;;1.20;0.57;;;;;;;13.23;100.00;93518.84;2103799;28;20028;-84
2021/07/18 02:48:27;;;;;;;0.75;0.75;;;;;;;13.18;100.00;93508.59;2111351;28;20016;-84
2021/07/18 02:49:27;;;;;;;0.90;0.90;;;;;;;13.25;100.00;93508.44;2097220;28;20031;-84
2021/07/18 02:50:29;;;;;;;0.30;0.30;;;;;;;13.17;100.00;93514.38;2099753;28;20051;-84
2021/07/18 02:51:30;;;;;;;0.30;0.30;;;;;;;13.09;100.00;93505.75;2110874;28;20024;-84
2021/07/18 02:52:31;;;;;;;0.20;0.20;;;;;;;13.08;100.00;93507.69;2106880;28;20027;-85
2021/07/18 02:53:32;;;;;;;0.25;0.25;;;;;;;13.01;100.00;93515.16;2102528;28;20058;-85
2021/07/18 02:54:33;;;;;;;4.95;1.38;;;;;;;13.11;100.00;93514.88;2111015;28;20020;-84
2021/07/18 02:55:34;;;;;;;0.20;0.20;;;;;;;13.14;100.00;93513.31;2120787;27;20072;-85
2021/07/18 02:56:35;;;;;;;0.45;0.40;;;;;;;13.11;100.00;93516.81;2109204;28;20031;-86
2021/07/18 02:57:36;;;;;;;0.20;0.20;;;;;;;13.11;100.00;93514.88;2116662;28;20081;-85
2021/07/18 02:58:37;;;;;;;0.95;0.40;;;;;;;13.12;100.00;93512.97;2090112;28;20037;-85
2021/07/18 02:59:38;;;;;;;1.13;0.95;;;;;;;13.09;100.00;93516.50;2116098;27;20019;-85
2021/07/18 03:00:38;;;;;;;0.17;0.17;;;;;;;13.04;100.00;93519.69;2105570;28;20020;-85
2021/07/18 03:01:39;;;;;;;1.20;0.63;;;;;;;13.00;100.00;93525.16;2093191;28;20033;-85
2021/07/18 03:02:41;;;;;;;0.22;0.22;;;;;;;12.93;100.00;93519.19;2099434;28;20115;-84
2021/07/18 03:03:42;;;;;;;0.20;0.20;;;;;;;12.92;100.00;93523.81;2096068;28;20034;-85
2021/07/18 03:04:44;;;;;;;0.25;0.25;;;;;;;12.91;100.00;93522.31;2090073;28;20028;-85
2021/07/18 03:05:45;;;;;;;3.22;0.80;;;;;;;12.90;100.00;93520.78;2093459;28;20044;-84
2021/07/18 03:06:46;;;;;;;0.30;0.30;;;;;;;12.83;100.00;93519.03;2089406;28;20139;-84
2021/07/18 03:07:47;;;;;;;0.63;0.63;;;;;;;12.79;100.00;93515.69;2097695;28;20044;-84
2021/07/18 03:08:48;;;;;;;0.88;0.55;;;;;;;12.81;100.00;93517.94;2103436;28;20024;-84
2021/07/18 03:09:49;;;;;;;0.10;0.10;;;;;;;12.88;100.00;93519.69;2098800;28;20040;-84
2021/07/18 03:10:51;;;;;;;0.35;0.35;;;;;;;12.87;100.00;93515.53;2093704;28;20037;-85
2021/07/18 03:11:53;;;;;;;0.30;0.30;;;;;;;12.83;100.00;93527.06;2098308;28;20035;-85
2021/07/18 03:12:54;;;;;;;0.93;0.88;;;;;;;12.84;100.00;93522.47;2105761;28;20032;-84
2021/07/18 03:13:55;;;;;;;0.50;0.50;;;;;;;12.83;100.00;93523.66;2104454;28;20024;-85
2021/07/18 03:14:56;;;;;;;1.60;1.30;;;;;;;12.70;100.00;93523.56;2102808;28;20027;-85
2021/07/18 03:15:56;;;;;;;0.30;0.30;;;;;;;12.65;100.00;93526.75;2103760;28;20033;-86
2021/07/18 03:16:57;;;;;;;0.15;0.15;;;;;;;12.61;100.00;93526.06;2090708;28;20021;-86
2021/07/18 03:17:58;;;;;;;0.20;0.20;;;;;;;12.65;100.00;93521.38;2090336;28;20036;-85
2021/07/18 03:18:59;;;;;;;0.00;0.00;;;;;;;12.60;100.00;93517.28;2092005;28;20036;-85
2021/07/18 03:20:02;;;;;;;0.43;0.43;;;;;;;12.66;100.00;93522.13;2106243;28;20085;-85
2021/07/18 03:21:03;;;;;;;0.47;0.47;;;;;;;12.63;100.00;93522.97;2101031;28;20023;-85
2021/07/18 03:22:04;;;;;;;0.80;0.45;;;;;;;12.71;100.00;93521.63;2096123;28;20024;-84
2021/07/18 03:23:06;;;;;;;0.30;0.30;;;;;;;12.70;100.00;93523.56;2097959;28;20035;-85
2021/07/18 03:24:07;;;;;;;0.47;0.47;;;;;;;12.75;100.00;93524.97;2095571;28;20012;-85
2021/07/18 03:25:09;;;;;;;0.20;0.20;;;;;;;12.78;100.00;93518.78;2100815;28;20106;-84
2021/07/18 03:26:10;;;;;;;0.20;0.20;;;;;;;12.79;100.00;93518.34;2104517;28;21246;-85
2021/07/18 03:27:11;;;;;;;0.20;0.20;;;;;;;12.77;100.00;93519.94;2091961;28;20033;-84
2021/07/18 03:28:12;;;;;;;0.20;0.20;;;;;;;12.71;100.00;93527.00;2083933;28;20013;-86
2021/07/18 03:29:12;;;;;;;0.40;0.40;;;;;;;12.70;100.00;93523.56;2090062;28;20579;-84
2021/07/18 03:30:15;;;;;;;0.40;0.40;;;;;;;12.62;100.00;93522.22;2102249;28;20021;-85
2021/07/18 03:31:16;;;;;;;0.22;0.22;;;;;;;12.62;100.00;93521.47;2090353;28;20074;-85
2021/07/18 03:32:17;;;;;;;2.80;1.27;;;;;;;12.59;100.00;93520.34;2098300;28;20848;-84
2021/07/18 03:33:19;;;;;;;0.50;0.50;;;;;;;12.55;100.00;93523.09;2103917;28;20024;-85
2021/07/18 03:34:20;;;;;;;0.50;0.50;;;;;;;12.55;100.00;93520.44;2096286;28;20079;-84
2021/07/18 03:35:21;;;;;;;0.50;0.50;;;;;;;12.49;100.00;93521.34;2106002;28;20103;-84
2021/07/18 03:36:22;;;;;;;0.30;0.25;;;;;;;12.48;100.00;93530.59;2106587;28;20020;-85
2021/07/18 03:37:23;;;;;;;0.30;0.30;;;;;;;12.46;100.00;93519.50;2106388;28;20032;-86
2021/07/18 03:38:24;;;;;;;0.40;0.30;;;;;;;12.46;100.00;93519.50;2096645;28;20036;-84
2021/07/18 03:39:25;;;;;;;0.98;0.40;;;;;;;12.49;100.00;93522.09;2081706;28;20025;-84
2021/07/18 03:40:28;;;;;;;4.28;0.60;;;;;;;12.52;100.00;93520.53;2086161;28;20572;-84
2021/07/18 03:41:29;;;;;;;0.45;0.40;;;;;;;12.51;100.00;93522.47;2098027;28;20023;-86
2021/07/18 03:42:30;;;;;;;0.20;0.20;;;;;;;12.49;100.00;93516.75;2099390;28;20033;-85
2021/07/18 03:43:31;;;;;;;0.50;0.50;;;;;;;12.51;100.00;93517.09;2091218;28;20450;-85
2021/07/18 03:44:32;;;;;;;0.20;0.20;;;;;;;12.55;100.00;93517.00;2089687;28;20063;-85
2021/07/18 03:45:33;;;;;;;0.10;0.10;;;;;;;12.54;100.00;93518.94;2098155;28;20044;-84
2021/07/18 03:46:33;;;;;;;0.50;0.50;;;;;;;12.49;100.00;93522.09;2096677;28;20024;-85
2021/07/18 03:47:35;;;;;;;0.10;0.10;;;;;;;12.52;100.00;93520.53;2102601;28;20028;-84
2021/07/18 03:48:36;;;;;;;0.45;0.45;;;;;;;12.45;100.00;93518.75;2098296;28;20020;-84
2021/07/18 03:49:37;;;;;;;0.20;0.20;;;;;;;12.40;100.00;93523.88;2104235;28;20423;-85
2021/07/18 03:50:38;;;;;;;1.27;0.77;;;;;;;12.32;100.00;93521.31;2099606;28;20118;-85
2021/07/18 03:51:39;;;;;;;1.20;1.17;;;;;;;12.29;100.00;93518.72;2094649;28;20052;-85
2021/07/18 03:52:41;;;;;;;0.32;0.32;;;;;;;12.31;100.00;93513.72;2098240;28;20024;-86
2021/07/18 03:53:41;;;;;;;0.50;0.50;;;;;;;12.29;100.00;93521.41;2099723;28;20120;-85
2021/07/18 03:54:42;;;;;;;0.50;0.50;;;;;;;12.34;100.00;93518.25;2102800;28;20020;-85
2021/07/18 03:55:43;;;;;;;0.40;0.40;;;;;;;12.33;100.00;93516.72;2094605;28;20021;-85
2021/07/18 03:56:44;;;;;;;2.45;0.52;;;;;;;12.37;100.00;93514.72;2095045;28;20103;-85
2021/07/18 03:57:45;;;;;;;0.10;0.10;;;;;;;12.34;100.00;93510.22;2094507;28;20520;-86
2021/07/18 03:58:46;;;;;;;0.28;0.28;;;;;;;12.38;100.00;93521.59;2086275;28;20025;-83
2021/07/18 03:59:48;;;;;;;0.17;0.17;;;;;;;12.31;100.00;93519.81;2089644;28;20024;-85
2021/07/18 04:00:49;;;;;;;0.15;0.15;;;;;;;12.35;100.00;93519.75;2104484;28;20051;-84
2021/07/18 04:01:50;;;;;;;0.17;0.17;;;;;;;12.40;100.00;93524.63;2100475;28;20119;-84
2021/07/18 04:02:51;;;;;;;0.22;0.20;;;;;;;12.31;100.00;93522.50;2100255;28;20027;-85
2021/07/18 04:03:52;;;;;;;0.32;0.32;;;;;;;12.25;100.00;93518.81;2101347;28;20386;-84
2021/07/18 04:04:53;;;;;;;0.00;0.00;;;;;;;12.23;100.00;93523.06;2097831;28;20024;-85
2021/07/18 04:05:54;;;;;;;0.73;0.73;;;;;;;12.20;100.00;93529.25;2092490;28;20118;-84
2021/07/18 04:06:55;;;;;;;0.47;0.47;;;;;;;12.19;100.00;93517.78;2084161;28;20028;-84
2021/07/18 04:07:56;;;;;;;0.20;0.20;;;;;;;12.15;100.00;93524.41;2091832;28;20148;-84
2021/07/18 04:08:57;;;;;;;0.50;0.50;;;;;;;12.13;100.00;93527.50;2095729;28;20016;-84
2021/07/18 04:09:59;;;;;;;3.50;0.45;;;;;;;12.15;100.00;93527.06;2102646;28;20027;-86
2021/07/18 04:11:00;;;;;;;0.68;0.68;;;;;;;12.16;100.00;93518.63;2106213;28;20974;-86
2021/07/18 04:12:01;;;;;;;0.10;0.10;;;;;;;12.14;100.00;93525.56;2093930;28;20025;-84
2021/07/18 04:13:02;;;;;;;0.13;0.13;;;;;;;12.20;100.00;93515.84;2106983;28;20020;-85
2021/07/18 04:14:03;;;;;;;0.52;0.52;;;;;;;12.14;100.00;93515.59;2111597;28;20027;-86
2021/07/18 04:15:06;;;;;;;0.70;0.32;;;;;;;12.16;100.00;93517.84;2110129;28;20067;-84
2021/07/18 04:16:07;;;;;;;0.32;0.32;;;;;;;12.14;100.00;93518.28;2091748;28;20104;-86
2021/07/18 04:17:08;;;;;;;0.75;0.63;;;;;;;12.14;100.00;93520.97;2097897;28;20016;-84
2021/07/18 04:18:10;;;;;;;0.20;0.10;;;;;;;12.16;100.00;93525.91;2089672;28;20716;-85
2021/07/18 04:19:10;;;;;;;1.65;1.48;;;;;;;12.17;100.00;93524.75;2105431;28;20086;-84
2021/07/18 04:20:12;;;;;;;0.30;0.30;;;;;;;12.13;100.00;93519.47;2093399;28;20484;-84
2021/07/18 04:21:19;;;;;;;0.10;0.10;;;;;;;12.15;100.00;93522.47;2104390;28;20042;-84
2021/07/18 04:22:20;;;;;;;0.25;0.25;;;;;;;12.16;100.00;93525.91;2103140;28;20094;-84
2021/07/18 04:23:20;;;;;;;0.63;0.63;;;;;;;12.20;100.00;93523.91;2085245;28;20048;-83
2021/07/18 04:24:21;;;;;;;0.28;0.28;;;;;;;12.10;100.00;93526.38;2095251;28;20072;-84
2021/07/18 04:25:22;;;;;;;0.38;0.38;;;;;;;12.09;100.00;93532.19;2103991;28;20070;-84
2021/07/18 04:26:23;;;;;;;0.30;0.30;;;;;;;12.08;100.00;93523.38;2097687;28;20123;-83
2021/07/18 04:27:24;;;;;;;0.30;0.30;;;;;;;12.15;100.00;93525.16;2089341;28;20067;-84
2021/07/18 04:28:25;;;;;;;0.20;0.20;;;;;;;12.10;100.00;93529.06;2089380;28;20029;-85
2021/07/18 04:29:26;;;;;;;1.17;0.82;;;;;;;12.08;100.00;93520.69;2096888;28;20023;-84
2021/07/18 04:30:27;;;;;;;0.25;0.25;;;;;;;12.04;100.00;93516.59;2099140;28;20038;-83
2021/07/18 04:31:28;;;;;;;0.30;0.30;;;;;;;12.10;100.00;93520.28;2090057;28;20021;-83
2021/07/18 04:32:29;;;;;;;0.50;0.50;;;;;;;12.05;100.00;93518.09;2093218;28;20120;-83
2021/07/18 04:33:30;;;;;;;0.47;0.40;;;;;;;12.08;100.00;93520.69;2119251;27;20031;-83
2021/07/18 04:34:31;;;;;;;0.47;0.47;;;;;;;12.14;100.00;93528.25;2108911;28;20028;-83
2021/07/18 04:35:32;;;;;;;0.10;0.10;;;;;;;12.14;100.00;93525.56;2086981;28;20029;-84
2021/07/18 04:36:33;;;;;;;0.30;0.30;;;;;;;12.24;100.00;93532.63;2097731;28;20460;-84
2021/07/18 04:37:37;;;;;;;0.30;0.30;;;;;;;12.26;100.00;93528.38;2097698;28;20047;-86
2021/07/18 04:38:38;;;;;;;0.40;0.22;;;;;;;12.20;100.00;93529.25;2094627;28;20063;-85
2021/07/18 04:39:39;;;;;;;0.10;0.10;;;;;;;12.22;100.00;93526.94;2094754;28;20098;-83
2021/07/18 04:40:40;;;;;;;0.17;0.17;;;;;;;12.19;100.00;93531.19;2094144;28;20020;-84
2021/07/18 04:41:41;;;;;;;13.23;6.78;;;;;;;12.24;100.00;93530.69;2097636;28;20028;-84
2021/07/18 04:42:42;;;;;;;9.07;6.88;;;;;;;12.22;100.00;93521.56;2097562;28;20492;-83
2021/07/18 04:43:43;;;;;;;9.57;5.93;;;;;;;12.26;100.00;93525.69;2113736;28;20023;-83
2021/07/18 04:44:44;;;;;;;8.60;5.93;;;;;;;12.22;100.00;93519.66;2122696;27;20027;-84
2021/07/18 04:45:45;;;;;;;13.38;6.82;;;;;;;12.22;100.00;93526.94;2105890;28;20031;-84